Aérodrome :
LOGIN :

S'inscrire | Disclaimer

   EN    FR    IT 

 










Légende :    VFR   VFR Marginal   IFR   IFR Intensif   IFR Très Intensif
Visi : 
Plafond : 
>= 8 km
>= 3000ft
5 à 8 km
1000 à 3000 ft
1500m à 5 km
500 à 1000 ft
800 à 1500m
200 à 500 ft
< 800m
< 200 ft
Symboles :   Orages  Brouillard  Fortes neiges  Fortes précipitations  Vent > 20 kt
SIGMETs :   Divers  Orages  Givrage  Turbulence  Onde Orograph.  Cendres Volcan.







- Altitude de l'aérodrome : 529 ft
- Code IATA : CHR
- Voir les cartes d'approche


LFLX - Chateauroux

DERNIER METAR :
  • 200030Z AUTO 34007KT CAVOK 18/13 Q1022 NOSIG

METARs EXPIRÉS :
  • 200000Z AUTO 34005KT CAVOK 17/12 Q1022 NOSIG
  • 192330Z AUTO 00000KT CAVOK 18/12 Q1022 NOSIG
  • 192300Z AUTO VRB01KT CAVOK 18/12 Q1022 NOSIG
  • 192230Z AUTO 33003KT CAVOK 18/11 Q1022 NOSIG
  • 192200Z AUTO 33005KT CAVOK 18/12 Q1022 NOSIG

TAF TAF LFLX
Valide du 20 à 00h jusqu'au 21 à 06h UTC


192300Z 2000/2106 34005KT CAVOK
PROB30
TEMPO 2003/2010 BKN014
TEMPO 2012/2021 36012G22KT
BECMG 2021/2024 04005KT
Pas de NOTAMs connus pour ce terrain.



MET'MAP, la Météo Aéronautique d'un coup d'oeil ! - Copyright ORBIFLY Décembre 2007 - Disclaimer

ORBIFLY MET'MAP TEAM :

Programmation & Développement : Alexandra Zaïnal
Conception & Développement : Baudouin d'Aumeries
Co-Programmation & Développement : Marc-Olivier Méhu
Soutien technique & logistique : Manuel Goepfert

Contact : metmap@orbifly.com




SOURCES & CREDITS :

   NOAA